Time;durP1;ratioP1;P1;durP2;ratioP2;P2;SDS_P1;SDS_P2;PMS_P1;PMS_P2;Temp;Humidity;BMP_temperature;BMP_pressure;BME280_temperature;BME280_humidity;BME280_pressure;Samples;Min_cycle;Max_cycle;Signal;HPM_P1;HPM_P2
2022/07/03 00:01:42;;;;;;;1.75;1.08;;;16.30;99.90;;;;;;5018771;28;20042;-77
2022/07/03 00:04:08;;;;;;;1.10;0.90;;;16.40;99.90;;;;;;5026786;28;20033;-78
2022/07/03 00:06:34;;;;;;;2.92;1.17;;;16.50;99.90;;;;;;5016079;28;20030;-78
2022/07/03 00:09:04;;;;;;;0.82;0.65;;;16.30;99.90;;;;;;5020397;28;20041;-78
2022/07/03 00:11:30;;;;;;;1.80;0.98;;;16.20;99.90;;;;;;5016129;28;20474;-78
2022/07/03 00:13:57;;;;;;;1.00;0.80;;;16.20;99.90;;;;;;5023743;28;20038;-77
2022/07/03 00:16:23;;;;;;;1.67;1.10;;;16.10;99.90;;;;;;5017263;28;20064;-77
2022/07/03 00:18:50;;;;;;;2.42;1.20;;;16.00;99.90;;;;;;5018066;28;20034;-78
2022/07/03 00:21:25;;;;;;;2.00;1.20;;;15.70;99.90;;;;;;5016074;28;20049;-77
2022/07/03 00:24:24;;;;;;;2.05;1.38;;;15.50;99.90;;;;;;5023620;28;20048;-77
2022/07/03 00:26:52;;;;;;;3.80;1.15;;;15.50;99.90;;;;;;5032731;28;20370;-78
2022/07/03 00:29:23;;;;;;;2.00;1.17;;;15.40;99.90;;;;;;5029066;28;20034;-76
2022/07/03 00:31:50;;;;;;;2.00;1.00;;;15.40;99.90;;;;;;5031045;28;20049;-78
2022/07/03 00:34:17;;;;;;;1.55;1.05;;;15.30;99.90;;;;;;5016083;28;20038;-78
2022/07/03 00:36:46;;;;;;;2.00;1.15;;;15.20;99.90;;;;;;5019393;28;20049;-79
2022/07/03 00:39:13;;;;;;;2.90;1.20;;;15.10;99.90;;;;;;5014841;28;20057;-78
2022/07/03 00:41:40;;;;;;;2.78;1.20;;;15.10;99.90;;;;;;5022729;28;20030;-76
2022/07/03 00:44:06;;;;;;;1.52;0.77;;;15.10;99.90;;;;;;5023990;28;20037;-77
2022/07/03 00:46:38;;;;;;;2.47;1.65;;;15.10;99.90;;;;;;5018300;28;20029;-77
2022/07/03 00:49:08;;;;;;;5.10;2.65;;;15.10;99.90;;;;;;5018635;28;20108;-77
2022/07/03 00:51:37;;;;;;;2.50;1.20;;;15.30;99.90;;;;;;5024236;28;20038;-77
2022/07/03 00:54:03;;;;;;;2.13;1.10;;;15.30;99.90;;;;;;5017691;28;20042;-77
2022/07/03 00:56:31;;;;;;;2.42;1.25;;;15.30;99.90;;;;;;5019897;28;20049;-78
2022/07/03 00:58:59;;;;;;;2.72;1.80;;;15.50;99.90;;;;;;5018154;28;20038;-77
2022/07/03 01:01:31;;;;;;;2.13;1.15;;;15.40;99.90;;;;;;5015943;28;20033;-77
2022/07/03 01:04:11;;;;;;;1.88;1.25;;;15.20;99.90;;;;;;5019759;28;20057;-76
2022/07/03 01:06:51;;;;;;;2.47;1.52;;;15.10;99.90;;;;;;5019846;28;20521;-79
2022/07/03 01:09:27;;;;;;;1.85;1.25;;;15.00;99.90;;;;;;5018175;28;20467;-80
2022/07/03 01:12:01;;;;;;;4.28;1.25;;;15.10;99.90;;;;;;5022923;28;20044;-78
2022/07/03 01:14:51;;;;;;;2.85;1.30;;;15.20;99.90;;;;;;5013665;28;20045;-79
2022/07/03 01:17:26;;;;;;;3.15;1.20;;;15.10;99.90;;;;;;5015033;28;20065;-79
2022/07/03 01:20:01;;;;;;;3.13;1.30;;;15.10;99.90;;;;;;5015509;28;20038;-78
2022/07/03 01:22:32;;;;;;;2.05;1.13;;;15.10;99.90;;;;;;5020316;28;20034;-79
2022/07/03 01:25:20;;;;;;;1.73;1.42;;;15.20;99.90;;;;;;5026472;28;20387;-77
2022/07/03 01:28:01;;;;;;;2.22;1.45;;;15.20;99.90;;;;;;5020531;28;20042;-77
2022/07/03 01:30:28;;;;;;;;;;;14.90;99.90;;;;;;5022888;28;20391;-77
2022/07/03 01:33:19;;;;;;;1.60;1.10;;;14.60;99.90;;;;;;5017643;28;19913;-77
2022/07/03 01:36:05;;;;;;;1.98;1.45;;;14.40;99.90;;;;;;5026878;28;20045;-77
2022/07/03 01:38:33;;;;;;;2.97;1.80;;;14.30;99.90;;;;;;5018640;28;20040;-78
2022/07/03 01:41:02;;;;;;;2.17;1.35;;;14.20;99.90;;;;;;5017451;28;20049;-77
2022/07/03 01:43:30;;;;;;;3.83;1.85;;;14.00;99.90;;;;;;5030511;28;20053;-77
2022/07/03 01:45:59;;;;;;;2.15;1.17;;;14.00;99.90;;;;;;5016494;28;20029;-77
2022/07/03 01:48:26;;;;;;;2.60;1.25;;;13.90;99.90;;;;;;5025510;28;20030;-76
2022/07/03 01:50:54;;;;;;;2.85;1.83;;;13.90;99.90;;;;;;5024786;28;20113;-77
2022/07/03 01:53:24;;;;;;;3.35;1.60;;;13.80;99.90;;;;;;5021699;28;20371;-77
2022/07/03 01:55:52;;;;;;;4.57;1.67;;;13.70;99.90;;;;;;5017221;28;20030;-76
2022/07/03 01:58:19;;;;;;;2.80;1.80;;;13.70;99.90;;;;;;5012469;28;20042;-77
2022/07/03 02:01:05;;;;;;;2.72;1.67;;;13.70;99.90;;;;;;5018893;28;20049;-78
2022/07/03 02:03:34;;;;;;;2.33;1.52;;;13.70;99.90;;;;;;5021345;28;20034;-77
2022/07/03 02:06:08;;;;;;;2.05;1.30;;;13.70;99.90;;;;;;5016628;28;20038;-77
2022/07/03 02:09:03;;;;;;;5.20;2.00;;;13.70;99.90;;;;;;5015573;28;20026;-78
2022/07/03 02:11:43;;;;;;;2.33;1.00;;;13.80;99.90;;;;;;5020804;28;20036;-78
2022/07/03 02:14:09;;;;;;;1.73;1.30;;;13.90;99.90;;;;;;5025498;28;20033;-78
2022/07/03 02:16:44;;;;;;;2.08;1.20;;;14.00;99.90;;;;;;5013294;28;20410;-78
2022/07/03 02:19:13;;;;;;;5.97;1.65;;;14.00;99.90;;;;;;5031383;28;20045;-77
2022/07/03 02:21:54;;;;;;;3.00;1.30;;;14.00;99.90;;;;;;5022161;28;20057;-78
2022/07/03 02:24:25;;;;;;;2.83;1.90;;;14.00;99.90;;;;;;5019065;28;20034;-78
2022/07/03 02:27:02;;;;;;;2.75;1.58;;;14.00;99.90;;;;;;5014116;28;20069;-79
2022/07/03 02:29:36;;;;;;;2.55;1.33;;;14.00;99.90;;;;;;5025338;28;20046;-78
2022/07/03 02:32:06;;;;;;;2.83;1.50;;;14.20;99.90;;;;;;5025317;28;20475;-79
2022/07/03 02:34:35;;;;;;;2.15;1.23;;;14.30;99.90;;;;;;5018803;28;20037;-78
2022/07/03 02:37:12;;;;;;;2.40;1.65;;;14.40;99.90;;;;;;5012522;28;20600;-79
2022/07/03 02:39:45;;;;;;;3.47;2.25;;;14.30;99.90;;;;;;5019017;28;20038;-79
2022/07/03 02:42:27;;;;;;;2.58;1.30;;;14.30;99.90;;;;;;5014427;28;20038;-79
2022/07/03 02:44:56;;;;;;;3.92;1.63;;;14.30;99.90;;;;;;5014097;28;20053;-78
2022/07/03 02:47:33;;;;;;;2.40;1.77;;;14.40;99.90;;;;;;5013240;28;20034;-78
2022/07/03 02:50:11;;;;;;;2.58;1.55;;;14.40;99.90;;;;;;5035808;28;20041;-78
2022/07/03 02:52:42;;;;;;;2.63;1.52;;;14.40;99.90;;;;;;5014656;28;20026;-77
2022/07/03 02:55:47;;;;;;;1.58;1.13;;;14.40;99.90;;;;;;5030035;28;20041;-80
2022/07/03 02:58:31;;;;;;;2.15;1.45;;;14.30;99.90;;;;;;5021063;28;20052;-77
2022/07/03 03:01:13;;;;;;;3.33;1.98;;;14.10;99.90;;;;;;5022846;28;20038;-76
2022/07/03 03:03:48;;;;;;;3.10;1.55;;;14.00;99.90;;;;;;5030352;28;20034;-77
2022/07/03 03:06:20;;;;;;;2.53;1.67;;;14.10;99.90;;;;;;5026023;28;20046;-78
2022/07/03 03:08:52;;;;;;;2.75;1.70;;;14.20;99.90;;;;;;5023435;28;20029;-79
2022/07/03 03:11:38;;;;;;;4.47;1.60;;;14.30;99.90;;;;;;5017489;28;20030;-78
2022/07/03 03:14:08;;;;;;;3.28;1.50;;;14.40;99.90;;;;;;5027529;28;20406;-77
2022/07/03 03:16:41;;;;;;;4.72;1.88;;;14.40;99.90;;;;;;5018268;28;20038;-77
2022/07/03 03:19:07;;;;;;;2.67;1.48;;;14.50;99.90;;;;;;5021394;28;20049;-77
2022/07/03 03:21:44;;;;;;;2.45;1.48;;;14.60;99.90;;;;;;5022319;28;20395;-77
2022/07/03 03:24:11;;;;;;;2.58;1.55;;;14.70;99.90;;;;;;5029113;28;20065;-77
2022/07/03 03:26:38;;;;;;;2.30;1.20;;;15.00;99.90;;;;;;5018477;28;20029;-77
2022/07/03 03:29:04;;;;;;;2.47;1.38;;;15.20;99.90;;;;;;5016821;28;20038;-77
2022/07/03 03:31:32;;;;;;;2.60;1.27;;;15.30;99.90;;;;;;5020394;28;20034;-77
2022/07/03 03:33:59;;;;;;;5.55;1.40;;;15.60;99.90;;;;;;5024556;28;20048;-77
2022/07/03 03:36:25;;;;;;;1.95;1.10;;;15.70;99.90;;;;;;5034275;28;20037;-77
2022/07/03 03:38:51;;;;;;;1.92;1.05;;;15.90;99.90;;;;;;5015552;28;20041;-77
2022/07/03 03:41:18;;;;;;;2.60;1.35;;;16.00;99.90;;;;;;5021510;28;20037;-77
2022/07/03 03:43:45;;;;;;;3.22;1.45;;;16.00;99.90;;;;;;5019737;28;20045;-78
2022/07/03 03:46:11;;;;;;;2.47;1.77;;;16.00;99.90;;;;;;5021122;28;20033;-78
2022/07/03 03:48:37;;;;;;;2.00;1.20;;;16.10;99.90;;;;;;5018659;28;20025;-77
2022/07/03 03:51:04;;;;;;;2.95;1.20;;;16.20;99.90;;;;;;5035994;28;20041;-77
2022/07/03 03:53:30;;;;;;;2.22;1.50;;;16.30;99.90;;;;;;5029499;28;20041;-76
2022/07/03 03:56:06;;;;;;;2.10;1.42;;;16.40;99.90;;;;;;5017727;28;20040;-76
2022/07/03 03:58:34;;;;;;;2.50;1.30;;;16.50;99.90;;;;;;5019320;28;20042;-78
2022/07/03 04:01:03;;;;;;;2.28;1.50;;;16.60;99.90;;;;;;5020069;28;20029;-78
2022/07/03 04:03:31;;;;;;;2.42;1.42;;;16.70;99.90;;;;;;5032236;28;20042;-78
2022/07/03 04:05:57;;;;;;;3.38;0.95;;;16.80;99.90;;;;;;5034505;28;20025;-78
2022/07/03 04:08:24;;;;;;;3.90;1.17;;;16.80;99.90;;;;;;5024095;28;20038;-77
2022/07/03 04:10:51;;;;;;;2.35;1.70;;;16.80;99.90;;;;;;5015897;28;20383;-77
2022/07/03 04:13:20;;;;;;;2.25;1.10;;;16.90;99.90;;;;;;5020426;28;20467;-78
2022/07/03 04:15:48;;;;;;;2.22;0.98;;;17.00;99.90;;;;;;5021874;28;20069;-77
2022/07/03 04:18:14;;;;;;;2.40;1.30;;;17.00;99.90;;;;;;5013795;28;20056;-77
2022/07/03 04:20:40;;;;;;;4.20;1.48;;;17.20;99.90;;;;;;5022848;28;20033;-77
2022/07/03 04:23:07;;;;;;;3.95;1.48;;;17.30;99.90;;;;;;5042609;28;20054;-77
2022/07/03 04:25:33;;;;;;;2.60;1.40;;;18.10;99.90;;;;;;5033608;28;20041;-76
2022/07/03 04:27:59;;;;;;;1.58;1.10;;;19.80;99.90;;;;;;5020842;28;20037;-78
2022/07/03 04:30:25;;;;;;;1.55;0.77;;;21.00;99.90;;;;;;5018918;28;20034;-78
2022/07/03 04:32:52;;;;;;;3.20;1.10;;;21.90;96.40;;;;;;5016546;28;20033;-79
2022/07/03 04:35:18;;;;;;;1.92;1.08;;;23.00;93.20;;;;;;5021038;28;20030;-79
2022/07/03 04:37:45;;;;;;;2.13;0.90;;;23.70;88.80;;;;;;5016639;28;20463;-79
2022/07/03 04:40:12;;;;;;;3.42;1.13;;;23.70;87.10;;;;;;5020527;28;20030;-80
2022/07/03 04:42:38;;;;;;;4.10;1.55;;;23.90;83.20;;;;;;5018998;28;20051;-78
2022/07/03 04:45:05;;;;;;;3.60;1.00;;;24.80;80.20;;;;;;5014940;28;20061;-79
2022/07/03 04:47:32;;;;;;;2.08;1.23;;;25.60;79.40;;;;;;5016133;28;20033;-79
2022/07/03 04:49:58;;;;;;;4.18;1.20;;;26.10;72.70;;;;;;5020124;28;20077;-79
2022/07/03 04:52:24;;;;;;;1.65;0.80;;;26.50;70.80;;;;;;5014790;28;20494;-78
2022/07/03 04:54:50;;;;;;;1.48;0.98;;;26.80;68.50;;;;;;5021688;28;20037;-78
2022/07/03 04:57:17;;;;;;;2.55;0.93;;;26.60;68.80;;;;;;5020502;28;20029;-79
2022/07/03 04:59:43;;;;;;;1.40;1.00;;;26.70;68.10;;;;;;5030767;28;20060;-79
2022/07/03 05:02:09;;;;;;;3.95;1.15;;;26.70;66.70;;;;;;5016388;28;20391;-80
2022/07/03 05:04:36;;;;;;;2.30;1.05;;;26.40;66.90;;;;;;5017578;28;20038;-80
2022/07/03 05:07:02;;;;;;;2.67;1.02;;;26.50;66.70;;;;;;5014409;28;20033;-78
2022/07/03 05:09:28;;;;;;;2.13;1.48;;;26.70;66.10;;;;;;5014951;28;20029;-79
2022/07/03 05:11:55;;;;;;;1.55;0.80;;;27.50;64.30;;;;;;5018767;28;20368;-78
2022/07/03 05:14:21;;;;;;;4.45;1.00;;;27.80;62.40;;;;;;5016710;28;20037;-79
2022/07/03 05:16:47;;;;;;;1.58;0.80;;;27.80;62.50;;;;;;5016123;28;20046;-79
2022/07/03 05:19:13;;;;;;;1.38;1.00;;;27.20;63.40;;;;;;5015588;28;20045;-79
2022/07/03 05:21:40;;;;;;;2.15;0.90;;;26.20;65.30;;;;;;5020658;28;20025;-79
2022/07/03 05:24:06;;;;;;;1.13;0.70;;;26.60;64.30;;;;;;5029804;28;20053;-78
2022/07/03 05:26:32;;;;;;;5.85;0.90;;;26.10;63.70;;;;;;5030969;28;20395;-79
2022/07/03 05:28:59;;;;;;;3.38;0.93;;;26.10;65.10;;;;;;5017064;28;20048;-79
2022/07/03 05:31:25;;;;;;;2.88;1.00;;;25.70;66.00;;;;;;5017339;28;20478;-80
2022/07/03 05:33:51;;;;;;;2.63;1.05;;;25.50;66.90;;;;;;5015417;28;20034;-79
2022/07/03 05:36:17;;;;;;;1.90;1.02;;;25.50;68.00;;;;;;5019898;28;20038;-80
2022/07/03 05:41:28;;;;;;;1.30;0.90;;;25.90;66.10;;;;;;5018939;28;20091;-78
2022/07/03 05:43:54;;;;;;;1.90;1.10;;;26.10;66.60;;;;;;5028193;28;20033;-78
2022/07/03 05:46:20;;;;;;;2.78;0.98;;;26.40;66.10;;;;;;5014995;28;20392;-78
2022/07/03 05:48:46;;;;;;;2.45;1.08;;;26.10;65.60;;;;;;5022799;28;20025;-77
2022/07/03 05:51:13;;;;;;;4.13;1.08;;;26.10;65.90;;;;;;5026203;28;20025;-77
2022/07/03 05:53:39;;;;;;;2.95;1.10;;;25.30;68.70;;;;;;5016094;28;20061;-78
2022/07/03 05:56:05;;;;;;;2.78;1.05;;;25.30;69.00;;;;;;5015936;28;20029;-78
2022/07/03 05:58:31;;;;;;;4.55;1.00;;;25.20;68.20;;;;;;5014228;28;20305;-78
2022/07/03 06:00:57;;;;;;;4.40;1.08;;;25.70;70.20;;;;;;5029670;28;20048;-76
2022/07/03 06:03:23;;;;;;;4.50;1.13;;;26.10;67.40;;;;;;5018866;28;20041;-78
2022/07/03 06:05:49;;;;;;;2.63;1.05;;;25.80;67.50;;;;;;5015374;28;20029;-78
2022/07/03 06:08:16;;;;;;;3.22;1.20;;;26.20;67.90;;;;;;5017143;28;20021;-80
2022/07/03 06:10:42;;;;;;;1.90;0.80;;;26.50;66.60;;;;;;5015352;28;20041;-80
2022/07/03 06:13:08;;;;;;;1.52;0.73;;;26.20;65.10;;;;;;5012142;28;20068;-79
2022/07/03 06:15:34;;;;;;;1.60;0.80;;;26.20;67.40;;;;;;5028383;28;20053;-78
2022/07/03 06:18:00;;;;;;;1.10;0.77;;;26.80;66.80;;;;;;5019076;28;20487;-77
2022/07/03 06:20:27;;;;;;;2.38;0.90;;;26.40;64.70;;;;;;5017775;28;20021;-78
2022/07/03 06:22:53;;;;;;;2.88;0.90;;;26.10;67.20;;;;;;5016511;28;20467;-80
2022/07/03 06:25:19;;;;;;;2.83;1.00;;;26.10;65.90;;;;;;5013706;28;20042;-78
2022/07/03 06:27:45;;;;;;;1.95;0.77;;;26.00;65.90;;;;;;5023476;28;20037;-80
2022/07/03 06:30:12;;;;;;;1.13;0.65;;;26.30;65.60;;;;;;5031894;28;20045;-81
2022/07/03 06:32:38;;;;;;;3.97;0.90;;;26.30;64.60;;;;;;5015259;28;20460;-80
2022/07/03 06:35:05;;;;;;;3.90;1.02;;;26.10;64.60;;;;;;5016045;28;20036;-78
2022/07/03 06:37:31;;;;;;;1.30;0.85;;;26.00;65.70;;;;;;5023896;28;20383;-80
2022/07/03 06:39:57;;;;;;;1.25;0.82;;;26.20;66.70;;;;;;5023324;28;20133;-81
2022/07/03 06:42:23;;;;;;;2.03;0.90;;;26.70;63.40;;;;;;5018017;28;20029;-79
2022/07/03 06:44:50;;;;;;;1.20;0.80;;;26.50;63.30;;;;;;5035055;28;20068;-81
2022/07/03 06:47:17;;;;;;;1.63;0.70;;;26.50;63.90;;;;;;5016849;28;20033;-81
2022/07/03 06:49:43;;;;;;;2.40;0.85;;;26.80;62.90;;;;;;5015119;28;20168;-81
2022/07/03 06:52:11;;;;;;;2.20;0.75;;;26.00;63.20;;;;;;5014884;28;20034;-81
2022/07/03 06:54:43;;;;;;;1.67;1.05;;;25.80;65.30;;;;;;5018686;28;20044;-81
2022/07/03 06:57:11;;;;;;;1.38;0.82;;;26.20;62.50;;;;;;5020315;28;20030;-80
2022/07/03 06:59:37;;;;;;;2.38;1.20;;;26.20;63.50;;;;;;5025864;28;20455;-81
2022/07/03 07:02:03;;;;;;;2.08;0.90;;;26.30;63.10;;;;;;5024256;28;20030;-80
2022/07/03 07:04:30;;;;;;;0.90;0.57;;;26.40;61.90;;;;;;5024876;28;20033;-79
2022/07/03 07:06:56;;;;;;;2.50;0.70;;;26.10;60.30;;;;;;5027421;28;20065;-80
2022/07/03 07:09:22;;;;;;;1.85;1.00;;;26.40;60.80;;;;;;5041224;28;20050;-79
2022/07/03 07:11:48;;;;;;;2.97;0.70;;;26.60;61.70;;;;;;5014467;28;20026;-80
2022/07/03 07:14:14;;;;;;;1.17;0.57;;;26.70;61.00;;;;;;5011548;28;20037;-79
2022/07/03 07:16:40;;;;;;;1.08;0.68;;;27.10;60.80;;;;;;5019728;28;20053;-81
2022/07/03 07:19:07;;;;;;;4.47;0.60;;;26.90;60.80;;;;;;5016302;28;20060;-80
2022/07/03 07:21:33;;;;;;;1.45;0.60;;;26.90;60.30;;;;;;5014559;28;20482;-82
2022/07/03 07:23:59;;;;;;;1.92;0.98;;;27.20;60.50;;;;;;5022653;28;20065;-81
2022/07/03 07:26:25;;;;;;;0.93;0.70;;;27.10;61.10;;;;;;5022972;28;20037;-80
2022/07/03 07:28:52;;;;;;;1.85;0.65;;;27.20;60.70;;;;;;5012017;28;20045;-81
2022/07/03 07:31:18;;;;;;;1.42;0.93;;;26.90;62.00;;;;;;5018943;28;20029;-81
2022/07/03 07:33:44;;;;;;;2.10;0.63;;;27.20;61.70;;;;;;5018853;28;20025;-80
2022/07/03 07:36:10;;;;;;;2.58;1.23;;;27.10;60.80;;;;;;5024503;28;20033;-80
2022/07/03 07:38:36;;;;;;;1.15;0.80;;;26.60;61.20;;;;;;5034654;28;20029;-79
2022/07/03 07:41:02;;;;;;;1.67;0.80;;;26.60;60.80;;;;;;5011851;28;20042;-83
2022/07/03 07:43:29;;;;;;;1.33;0.90;;;26.60;60.70;;;;;;5030247;28;20029;-79
2022/07/03 07:45:55;;;;;;;0.90;0.77;;;26.60;61.90;;;;;;5016909;28;20045;-79
2022/07/03 07:48:21;;;;;;;2.13;0.93;;;26.80;61.70;;;;;;5019378;28;20037;-81
2022/07/03 07:50:49;;;;;;;1.88;0.75;;;26.80;64.40;;;;;;5021341;28;20383;-79
2022/07/03 07:53:15;;;;;;;3.25;0.75;;;26.80;60.00;;;;;;5018269;28;20037;-80
2022/07/03 07:55:41;;;;;;;1.23;0.80;;;27.30;60.90;;;;;;5017492;28;20049;-80
2022/07/03 07:58:08;;;;;;;2.38;0.77;;;28.00;60.00;;;;;;5022729;28;20045;-79
2022/07/03 08:00:35;;;;;;;1.77;0.70;;;28.10;57.90;;;;;;5023551;28;20030;-79
2022/07/03 08:05:46;;;;;;;2.40;0.73;;;27.90;59.70;;;;;;5020738;28;20482;-79
2022/07/03 08:08:15;;;;;;;1.27;0.60;;;27.60;61.40;;;;;;5018932;28;20037;-82
2022/07/03 08:10:44;;;;;;;1.17;0.60;;;28.10;58.00;;;;;;5021280;28;20037;-79
2022/07/03 08:13:11;;;;;;;1.75;0.70;;;27.50;58.90;;;;;;5023083;28;20048;-79
2022/07/03 08:15:39;;;;;;;1.35;0.75;;;27.80;59.10;;;;;;5019545;28;20042;-79
2022/07/03 08:18:05;;;;;;;1.30;0.75;;;28.40;59.40;;;;;;5029832;28;20037;-78
2022/07/03 08:20:32;;;;;;;2.35;0.90;;;28.60;59.10;;;;;;5021951;28;20149;-79
2022/07/03 08:22:59;;;;;;;0.88;0.50;;;28.70;58.40;;;;;;5031422;28;20056;-79
2022/07/03 08:25:25;;;;;;;1.20;0.50;;;29.00;56.70;;;;;;5022333;28;20387;-79
2022/07/03 08:27:52;;;;;;;2.03;0.70;;;28.60;55.80;;;;;;5014647;28;20105;-78
2022/07/03 08:30:19;;;;;;;2.97;0.75;;;28.00;58.60;;;;;;5019866;28;20030;-77
2022/07/03 08:32:47;;;;;;;2.38;0.95;;;28.20;57.70;;;;;;5023986;28;20049;-79
2022/07/03 08:35:13;;;;;;;0.90;0.60;;;27.90;59.30;;;;;;5027803;28;20038;-79
2022/07/03 08:37:43;;;;;;;1.55;0.75;;;28.50;57.80;;;;;;5025019;28;20054;-79
2022/07/03 08:40:10;;;;;;;1.13;0.60;;;28.90;56.20;;;;;;5024868;28;20025;-79
2022/07/03 08:42:41;;;;;;;1.05;0.70;;;29.20;56.80;;;;;;5024728;28;20452;-79
2022/07/03 08:45:08;;;;;;;2.45;0.57;;;29.20;55.00;;;;;;5027239;28;20038;-79
2022/07/03 08:47:37;;;;;;;1.23;0.60;;;28.90;56.00;;;;;;5024861;28;20030;-78
2022/07/03 08:50:03;;;;;;;1.40;0.80;;;28.80;55.50;;;;;;5028467;28;20025;-79
2022/07/03 08:52:31;;;;;;;2.47;0.70;;;29.10;55.10;;;;;;5028374;28;20418;-80
2022/07/03 08:54:57;;;;;;;1.20;0.57;;;29.30;55.50;;;;;;5028395;28;20045;-79
2022/07/03 08:57:24;;;;;;;2.80;0.75;;;29.80;54.50;;;;;;5023823;28;20037;-78
2022/07/03 08:59:53;;;;;;;1.98;0.60;;;29.60;54.70;;;;;;5038464;28;20053;-80
2022/07/03 09:02:21;;;;;;;0.93;0.60;;;29.40;55.50;;;;;;5028491;28;20481;-79
2022/07/03 09:04:48;;;;;;;1.83;0.73;;;29.10;54.20;;;;;;5043716;28;20049;-79
2022/07/03 09:07:17;;;;;;;1.42;0.60;;;29.00;55.70;;;;;;5026027;28;20279;-79
2022/07/03 09:09:44;;;;;;;2.43;0.50;;;28.90;56.30;;;;;;5029039;28;20045;-79
2022/07/03 09:12:10;;;;;;;1.73;0.88;;;29.50;55.90;;;;;;5027778;28;20269;-78
2022/07/03 09:14:36;;;;;;;3.38;0.90;;;29.80;54.30;;;;;;5027604;28;20041;-78
2022/07/03 09:17:06;;;;;;;1.23;0.65;;;29.80;53.90;;;;;;5030330;28;20040;-79
2022/07/03 09:19:47;;;;;;;2.83;1.13;;;29.70;55.10;;;;;;5028894;28;20041;-79
2022/07/03 09:22:25;;;;;;;1.05;0.60;;;29.30;53.10;;;;;;5026240;28;20034;-81
2022/07/03 09:24:53;;;;;;;1.95;0.60;;;28.60;53.80;;;;;;5023338;28;20042;-79
2022/07/03 09:27:22;;;;;;;3.83;0.60;;;29.60;51.80;;;;;;5020203;28;20041;-80
2022/07/03 09:30:01;;;;;;;3.20;0.60;;;30.50;50.40;;;;;;5039690;28;20506;-79
2022/07/03 09:32:32;;;;;;;1.00;0.68;;;30.50;51.60;;;;;;5024912;28;20045;-80
2022/07/03 09:35:22;;;;;;;2.55;0.68;;;29.50;51.60;;;;;;5025896;28;20414;-79
2022/07/03 09:38:03;;;;;;;1.30;0.63;;;28.60;53.30;;;;;;5021650;28;20044;-79
2022/07/03 09:40:51;;;;;;;13.25;0.85;;;29.70;52.00;;;;;;5033078;28;20033;-87
2022/07/03 09:43:24;;;;;;;0.85;0.50;;;30.20;50.40;;;;;;5030131;28;20030;-84
2022/07/03 09:45:59;;;;;;;1.73;0.90;;;29.20;51.70;;;;;;5032429;28;20034;-84
2022/07/03 09:48:31;;;;;;;1.58;0.70;;;29.50;53.10;;;;;;5014208;28;20052;-80
2022/07/03 09:51:15;;;;;;;1.50;0.60;;;29.80;50.80;;;;;;5016611;28;20030;-83
2022/07/03 09:53:44;;;;;;;1.13;0.60;;;29.80;52.40;;;;;;5017351;28;20053;-83
2022/07/03 09:56:10;;;;;;;1.52;0.70;;;30.80;50.40;;;;;;5014750;28;20053;-84
2022/07/03 09:58:37;;;;;;;2.33;0.70;;;31.50;49.00;;;;;;5013434;28;20038;-84
2022/07/03 10:01:17;;;;;;;1.95;0.50;;;31.70;49.00;;;;;;5014660;28;20471;-83
2022/07/03 10:03:44;;;;;;;0.77;0.47;;;30.90;48.60;;;;;;5019318;28;20033;-82
2022/07/03 10:06:10;;;;;;;1.27;0.60;;;29.30;51.00;;;;;;5021597;28;20033;-82
2022/07/03 10:08:37;;;;;;;2.85;0.50;;;29.30;50.00;;;;;;5020556;28;20026;-84
2022/07/03 10:11:04;;;;;;;1.95;0.55;;;29.60;50.80;;;;;;5017799;28;20046;-79
2022/07/03 10:13:33;;;;;;;1.98;0.63;;;30.00;50.70;;;;;;5016671;28;20029;-81
2022/07/03 10:16:00;;;;;;;2.58;0.60;;;29.80;49.10;;;;;;5015142;28;20505;-83
2022/07/03 10:18:30;;;;;;;1.02;0.40;;;29.80;50.80;;;;;;5037048;28;20042;-84
2022/07/03 10:21:00;;;;;;;1.17;0.40;;;30.30;49.80;;;;;;5038220;28;20043;-81
2022/07/03 10:23:27;;;;;;;0.85;0.43;;;30.30;49.60;;;;;;5045494;28;20044;-86
2022/07/03 10:25:54;;;;;;;0.93;0.40;;;30.10;48.20;;;;;;5045928;28;20033;-83
2022/07/03 10:28:20;;;;;;;1.23;0.77;;;28.90;49.60;;;;;;5032980;28;20026;-80
2022/07/03 10:30:47;;;;;;;1.27;0.50;;;29.10;50.70;;;;;;5021147;28;20025;-83
2022/07/03 10:33:14;;;;;;;1.20;0.65;;;29.40;50.00;;;;;;5038230;28;20026;-82
2022/07/03 10:35:47;;;;;;;1.67;0.60;;;29.60;51.00;;;;;;5031519;28;20029;-83
2022/07/03 10:38:21;;;;;;;1.00;0.60;;;30.10;50.10;;;;;;5028821;28;20037;-82
2022/07/03 10:46:34;;;;;;;1.13;0.55;;;30.30;49.10;;;;;;5017604;28;20045;-82
2022/07/03 10:49:03;;;;;;;2.33;0.50;;;30.50;49.50;;;;;;5020930;28;20455;-82
2022/07/03 10:51:32;;;;;;;2.00;0.85;;;30.30;49.90;;;;;;5021705;28;20038;-82
2022/07/03 10:54:21;;;;;;;2.42;0.77;;;30.20;49.80;;;;;;5025830;28;20383;-86
2022/07/03 10:57:00;;;;;;;2.45;0.70;;;30.10;50.00;;;;;;5029752;28;20046;-82
2022/07/03 10:59:35;;;;;;;0.65;0.40;;;29.70;50.10;;;;;;5025043;28;20036;-85
2022/07/03 11:02:31;;;;;;;4.95;2.10;;;29.40;49.40;;;;;;5024304;28;20052;-83
2022/07/03 11:05:01;;;;;;;0.90;0.40;;;29.30;50.40;;;;;;5041637;28;20049;-86
2022/07/03 11:07:32;;;;;;;1.52;0.73;;;29.30;50.00;;;;;;5029500;28;20037;-86
2022/07/03 11:10:12;;;;;;;2.00;0.73;;;29.20;51.60;;;;;;5023288;28;20502;-86
2022/07/03 11:13:17;;;;;;;1.60;0.50;;;29.70;49.80;;;;;;5024103;28;20036;-80
2022/07/03 11:15:52;;;;;;;1.52;0.50;;;29.80;50.40;;;;;;5012693;28;20451;-85
2022/07/03 11:18:27;;;;;;;1.00;0.50;;;29.90;49.10;;;;;;5028031;28;20030;-83
2022/07/03 11:20:53;;;;;;;1.00;0.40;;;29.80;48.10;;;;;;5022485;28;20375;-85
2022/07/03 11:23:28;;;;;;;1.30;0.40;;;30.10;48.00;;;;;;5020000;28;20041;-84
2022/07/03 11:26:14;;;;;;;1.02;0.30;;;30.20;48.40;;;;;;5023985;28;20038;-82
2022/07/03 11:28:40;;;;;;;0.98;0.60;;;30.10;47.80;;;;;;5017020;28;20033;-82
2022/07/03 11:33:55;;;;;;;0.85;0.30;;;30.30;46.10;;;;;;5017433;28;20387;-84
2022/07/03 11:36:21;;;;;;;4.47;1.30;;;30.30;46.30;;;;;;5018246;28;20045;-82
2022/07/03 11:39:00;;;;;;;1.95;0.45;;;30.30;45.30;;;;;;5019967;28;20038;-84
2022/07/03 11:41:41;;;;;;;4.88;0.70;;;30.10;47.00;;;;;;5015871;28;20492;-82
2022/07/03 11:44:13;;;;;;;3.28;0.52;;;30.30;45.70;;;;;;5022671;28;20418;-83
2022/07/03 11:46:40;;;;;;;3.10;0.90;;;29.50;47.70;;;;;;5043471;28;20045;-82
2022/07/03 11:49:07;;;;;;;6.30;0.77;;;29.50;47.60;;;;;;5031415;28;20029;-83
2022/07/03 11:51:34;;;;;;;0.93;0.50;;;29.90;46.40;;;;;;5019183;28;20037;-82
2022/07/03 11:54:01;;;;;;;3.20;0.63;;;30.40;45.00;;;;;;5024757;28;20471;-88
2022/07/03 11:56:28;;;;;;;2.05;0.30;;;30.30;44.20;;;;;;5017071;28;20399;-86
2022/07/03 11:58:56;;;;;;;0.52;0.30;;;29.90;45.20;;;;;;5018298;28;20038;-82
2022/07/03 12:01:22;;;;;;;2.80;0.57;;;29.90;45.60;;;;;;5023518;28;20032;-84
2022/07/03 12:03:49;;;;;;;0.55;0.40;;;29.80;44.50;;;;;;5046122;28;20037;-83
2022/07/03 12:06:16;;;;;;;1.58;0.32;;;29.30;44.60;;;;;;5020595;28;20050;-81
2022/07/03 12:08:46;;;;;;;1.35;0.47;;;29.30;44.70;;;;;;5019850;28;20058;-85
2022/07/03 12:11:17;;;;;;;0.65;0.30;;;29.40;44.20;;;;;;5023252;28;20034;-86
2022/07/03 12:13:44;;;;;;;0.93;0.45;;;29.60;45.60;;;;;;5020256;28;20053;-83
2022/07/03 12:16:12;;;;;;;1.42;0.20;;;29.60;45.80;;;;;;5018163;28;20069;-82
2022/07/03 12:18:51;;;;;;;9.10;1.25;;;30.20;44.80;;;;;;5032232;28;20034;-81
2022/07/03 12:21:19;;;;;;;1.40;0.47;;;30.50;44.80;;;;;;5029006;28;20029;-81
2022/07/03 12:23:51;;;;;;;0.73;0.30;;;30.70;44.20;;;;;;5018345;28;20026;-81
2022/07/03 12:26:32;;;;;;;1.23;0.70;;;29.90;43.70;;;;;;5021587;28;20398;-80
2022/07/03 12:29:03;;;;;;;3.60;0.50;;;29.30;44.50;;;;;;5019887;28;20417;-82
2022/07/03 12:31:30;;;;;;;2.05;0.40;;;29.60;45.20;;;;;;5016027;28;20558;-81
2022/07/03 12:33:58;;;;;;;1.92;0.40;;;29.80;44.70;;;;;;5019150;28;20026;-81
2022/07/03 12:36:25;;;;;;;1.05;0.35;;;30.10;45.00;;;;;;5017192;28;20418;-82
2022/07/03 12:38:56;;;;;;;0.40;0.30;;;30.40;43.70;;;;;;5027209;28;20042;-83
2022/07/03 12:41:23;;;;;;;0.50;0.30;;;30.70;43.50;;;;;;5028877;28;20034;-82
2022/07/03 12:43:51;;;;;;;2.25;0.20;;;31.10;43.70;;;;;;5014874;28;20030;-81
2022/07/03 12:46:35;;;;;;;4.70;0.82;;;31.50;44.00;;;;;;5020616;28;20052;-81
2022/07/03 12:49:12;;;;;;;0.73;0.28;;;31.20;43.40;;;;;;5017785;28;20026;-81
2022/07/03 12:51:48;;;;;;;1.70;0.40;;;30.90;43.70;;;;;;5019357;28;20032;-82
2022/07/03 12:54:16;;;;;;;0.73;0.40;;;30.70;43.60;;;;;;5019440;28;20026;-81
2022/07/03 12:56:43;;;;;;;1.30;0.30;;;30.30;43.10;;;;;;5013685;28;20084;-80
2022/07/03 12:59:25;;;;;;;0.55;0.30;;;30.40;44.80;;;;;;5017829;28;20044;-78
2022/07/03 13:02:05;;;;;;;0.50;0.40;;;30.70;43.80;;;;;;5027917;28;20029;-81
2022/07/03 13:04:36;;;;;;;1.52;0.30;;;30.60;43.90;;;;;;5018130;28;20036;-83
2022/07/03 13:07:07;;;;;;;1.80;0.30;;;30.70;43.90;;;;;;5022471;28;20038;-81
2022/07/03 13:09:35;;;;;;;0.98;0.35;;;30.90;44.00;;;;;;5014273;28;20037;-80
2022/07/03 13:12:02;;;;;;;1.05;0.40;;;30.90;44.30;;;;;;5019824;28;20482;-81
2022/07/03 13:14:29;;;;;;;0.60;0.47;;;30.70;44.40;;;;;;5017888;28;20029;-81
2022/07/03 13:16:57;;;;;;;2.92;0.55;;;30.70;44.80;;;;;;5018274;28;20060;-82